createdAt,value
2019-06-20T00:00:47.898Z,151493.34
2019-06-20T00:03:16.670Z,151511.19
2019-06-20T00:05:45.119Z,151515.03
2019-06-20T00:08:13.651Z,151526.50
2019-06-20T00:10:42.434Z,151515.03
2019-06-20T00:13:12.995Z,151529.03
2019-06-20T00:15:41.462Z,151535.50
2019-06-20T00:18:09.972Z,151527.77
2019-06-20T00:20:38.454Z,151526.50
2019-06-20T00:23:06.979Z,151521.39
2019-06-20T00:25:35.439Z,151504.81
2019-06-20T00:28:03.940Z,151504.81
2019-06-20T00:30:32.453Z,151498.44
2019-06-20T00:33:00.933Z,151495.88
2019-06-20T00:35:29.351Z,151495.88
2019-06-20T00:37:57.793Z,151476.77
2019-06-20T00:40:26.280Z,151470.34
2019-06-20T00:42:54.718Z,151488.23
2019-06-20T00:45:23.279Z,151493.34
2019-06-20T00:47:51.706Z,151478.03
2019-06-20T00:50:20.126Z,151490.77
2019-06-20T00:52:48.572Z,151475.45
2019-06-20T00:55:17.006Z,151465.25
2019-06-20T00:57:45.448Z,151452.50
2019-06-20T01:00:14.803Z,151447.41
2019-06-20T01:02:43.241Z,151460.19
2019-06-20T01:05:11.749Z,151434.67
2019-06-20T01:07:40.231Z,151449.98
2019-06-20T01:10:09.112Z,151462.72
2019-06-20T01:12:37.516Z,151442.30
2019-06-20T01:15:08.643Z,151449.98
2019-06-20T01:17:37.226Z,151444.88
2019-06-20T01:20:08.545Z,151444.88
2019-06-20T01:22:37.062Z,151449.98
2019-06-20T01:25:08.906Z,151443.56
2019-06-20T01:27:40.109Z,151441.03
2019-06-20T01:30:09.983Z,151439.77
2019-06-20T01:32:38.546Z,151458.88
2019-06-20T01:35:08.518Z,151449.98
2019-06-20T01:37:37.103Z,151449.98
2019-06-20T01:40:06.881Z,151456.34
2019-06-20T01:42:35.376Z,151449.98
2019-06-20T01:45:07.375Z,151432.09
2019-06-20T01:47:36.142Z,151416.78
2019-06-20T01:50:07.128Z,151419.36
2019-06-20T01:52:35.532Z,151415.52
2019-06-20T01:55:05.991Z,151409.16
2019-06-20T01:57:34.509Z,151401.53
2019-06-20T02:00:03.134Z,151378.53
2019-06-20T02:02:31.787Z,151373.44
2019-06-20T02:05:00.258Z,151377.27
2019-06-20T02:07:28.707Z,151370.91
2019-06-20T02:09:57.152Z,151356.86
2019-06-20T02:12:25.570Z,151350.50
2019-06-20T02:14:53.987Z,151355.59
2019-06-20T02:17:22.430Z,151349.23
2019-06-20T02:19:50.850Z,151342.86
2019-06-20T02:22:19.289Z,151345.39
2019-06-20T02:24:47.732Z,151327.56
2019-06-20T02:27:16.159Z,151327.56
2019-06-20T02:29:44.808Z,151316.05
2019-06-20T02:32:13.260Z,151312.25
2019-06-20T02:34:41.669Z,151317.34
2019-06-20T02:37:10.127Z,151312.25
2019-06-20T02:39:38.542Z,151291.84
2019-06-20T02:42:06.991Z,151293.11
2019-06-20T02:44:35.411Z,151299.47
2019-06-20T02:47:03.931Z,151302.05
2019-06-20T02:49:32.343Z,151298.20
2019-06-20T02:52:00.774Z,151293.11
2019-06-20T02:54:29.766Z,151284.22
2019-06-20T02:56:58.203Z,151277.75
2019-06-20T02:59:26.623Z,151268.86
2019-06-20T03:01:55.056Z,151268.86
2019-06-20T03:04:23.479Z,151266.28
2019-06-20T03:06:52.381Z,151263.77
2019-06-20T03:09:20.815Z,151261.19
2019-06-20T03:11:49.243Z,151248.45
2019-06-20T03:14:17.655Z,151259.92
2019-06-20T03:16:46.106Z,151249.72
2019-06-20T03:19:14.524Z,151247.19
2019-06-20T03:21:42.967Z,151245.88
2019-06-20T03:24:11.385Z,151254.83
2019-06-20T03:26:39.792Z,151254.83
2019-06-20T03:29:08.236Z,151258.66
2019-06-20T03:31:36.648Z,151270.12
2019-06-20T03:34:05.236Z,151271.39
2019-06-20T03:36:33.658Z,151273.97
2019-06-20T03:39:02.083Z,151273.97
2019-06-20T03:41:30.511Z,151263.77
2019-06-20T03:43:59.212Z,151263.77
2019-06-20T03:46:27.858Z,151286.75
2019-06-20T03:48:56.283Z,151285.47
2019-06-20T03:51:24.763Z,151289.27
2019-06-20T03:53:53.198Z,151294.37
2019-06-20T03:56:21.614Z,151296.94
2019-06-20T03:58:50.056Z,151304.58
2019-06-20T04:01:18.478Z,151300.78
2019-06-20T04:03:46.889Z,151305.88
2019-06-20T04:06:15.346Z,151313.52
2019-06-20T04:08:43.825Z,151319.88
2019-06-20T04:11:12.266Z,151323.72
2019-06-20T04:13:40.691Z,151323.72
2019-06-20T04:16:09.199Z,151339.03
2019-06-20T04:18:37.882Z,151339.03
2019-06-20T04:21:06.302Z,151350.50
2019-06-20T04:23:34.793Z,151367.06
2019-06-20T04:26:03.235Z,151370.91
2019-06-20T04:28:31.653Z,151377.27
2019-06-20T04:31:00.148Z,151370.91
2019-06-20T04:33:28.583Z,151370.91
2019-06-20T04:35:57.016Z,151379.80
2019-06-20T04:38:25.441Z,151378.53
2019-06-20T04:40:53.858Z,151358.13
2019-06-20T04:43:22.284Z,151365.80
2019-06-20T04:46:10.135Z,151376.00
2019-06-20T04:48:38.635Z,151383.63
2019-06-20T04:51:07.083Z,151383.63
2019-06-20T04:53:35.510Z,151398.94
2019-06-20T04:56:05.819Z,151425.72
2019-06-20T04:58:34.166Z,151453.78
2019-06-20T05:01:02.599Z,151480.56
2019-06-20T05:03:31.140Z,151488.23
2019-06-20T05:05:59.566Z,151499.72
2019-06-20T05:08:27.996Z,151516.28
2019-06-20T05:10:56.426Z,151544.39
2019-06-20T05:13:24.864Z,151559.70
2019-06-20T05:15:53.630Z,151553.34
2019-06-20T05:18:22.239Z,151557.19
2019-06-20T05:20:50.879Z,151562.28
2019-06-20T05:23:19.276Z,151552.08
2019-06-20T05:25:47.708Z,151554.59
2019-06-20T05:28:16.139Z,151553.34
2019-06-20T05:30:45.056Z,151553.34
2019-06-20T05:33:13.488Z,151559.70
2019-06-20T05:35:42.671Z,151557.19
2019-06-20T05:38:11.136Z,151546.97
2019-06-20T05:40:39.539Z,151544.39
2019-06-20T05:43:07.996Z,151549.50
2019-06-20T05:45:36.433Z,151552.08
2019-06-20T05:48:05.536Z,151562.28
2019-06-20T05:50:33.981Z,151555.87
2019-06-20T05:53:02.416Z,151564.81
2019-06-20T05:55:30.836Z,151568.66
2019-06-20T05:57:59.591Z,151592.88
2019-06-20T06:00:28.190Z,151600.56
2019-06-20T06:02:56.614Z,151632.45
2019-06-20T06:05:25.120Z,151654.16
2019-06-20T06:07:53.534Z,151687.31
2019-06-20T06:10:22.043Z,151737.09
2019-06-20T06:12:50.478Z,151827.78
2019-06-20T06:15:20.320Z,151977.19
2019-06-20T06:17:48.774Z,152057.72
2019-06-20T06:20:18.632Z,152057.72
2019-06-20T06:22:47.059Z,152088.41
2019-06-20T06:25:15.951Z,152057.72
2019-06-20T06:27:44.357Z,152069.27
2019-06-20T06:30:13.723Z,152042.44
2019-06-20T06:32:42.241Z,152042.44
2019-06-20T06:35:11.192Z,152028.36
2019-06-20T06:37:40.671Z,152025.83
2019-06-20T06:40:10.560Z,152029.63
2019-06-20T06:42:39.049Z,152055.19
2019-06-20T06:45:08.925Z,152088.41
2019-06-20T06:47:37.367Z,152094.78
2019-06-20T06:50:06.835Z,152133.16
2019-06-20T06:52:35.549Z,152171.48
2019-06-20T06:55:05.102Z,152188.09
2019-06-20T06:57:33.614Z,152200.86
2019-06-20T07:00:02.080Z,152227.75
2019-06-20T07:02:30.559Z,152216.20
2019-06-20T07:04:59.021Z,152276.31
2019-06-20T07:07:27.451Z,152347.94
2019-06-20T07:09:55.945Z,152346.67
2019-06-20T07:12:24.397Z,152390.14
2019-06-20T07:14:52.825Z,152406.77
2019-06-20T07:17:21.292Z,152502.75
2019-06-20T07:19:49.720Z,152529.59
2019-06-20T07:22:18.135Z,152635.84
2019-06-20T07:24:46.587Z,152630.69
2019-06-20T07:27:15.002Z,152594.84
2019-06-20T07:29:43.492Z,152564.13
2019-06-20T07:32:11.932Z,152497.63
2019-06-20T07:34:40.361Z,152525.75
2019-06-20T07:37:08.869Z,152466.91
2019-06-20T07:39:37.285Z,152481.00
2019-06-20T07:42:05.767Z,152484.80
2019-06-20T07:44:34.210Z,152523.22
2019-06-20T07:47:16.726Z,152574.36
2019-06-20T07:49:32.916Z,152679.36
2019-06-20T07:52:01.376Z,152666.53
2019-06-20T07:54:29.798Z,152662.72
2019-06-20T07:56:58.230Z,152687.02
2019-06-20T07:59:26.648Z,152756.14
2019-06-20T08:01:55.136Z,152775.36
2019-06-20T08:04:23.589Z,152886.80
2019-06-20T08:06:52.008Z,152926.47
2019-06-20T08:09:22.170Z,152932.88
2019-06-20T08:11:50.761Z,152651.22
2019-06-20T08:14:19.614Z,152727.98
2019-06-20T08:16:48.055Z,152669.12
2019-06-20T08:19:16.469Z,152612.73
2019-06-20T08:21:44.946Z,152628.09
2019-06-20T08:24:13.386Z,152635.84
2019-06-20T08:26:41.823Z,152649.91
2019-06-20T08:29:20.871Z,152662.72
2019-06-20T08:31:40.508Z,152605.08
2019-06-20T08:34:08.925Z,152588.45
2019-06-20T08:36:37.370Z,152539.84
2019-06-20T08:39:08.857Z,152628.09
2019-06-20T08:41:37.417Z,152626.83
2019-06-20T08:44:06.785Z,152646.09
2019-06-20T08:46:35.634Z,152672.97
2019-06-20T08:49:05.674Z,152556.47
2019-06-20T08:51:34.478Z,152615.33
2019-06-20T08:54:03.430Z,152585.87
2019-06-20T08:56:32.163Z,152612.73
2019-06-20T08:59:00.686Z,152635.84
2019-06-20T09:01:29.848Z,152707.50
2019-06-20T09:03:58.663Z,152712.62
2019-06-20T09:06:27.203Z,152725.41
2019-06-20T09:08:57.044Z,152822.73
2019-06-20T09:11:25.768Z,152920.09
2019-06-20T09:13:55.368Z,152918.81
2019-06-20T09:16:24.948Z,152979.00
2019-06-20T09:18:54.924Z,152986.66
2019-06-20T09:21:23.953Z,153040.50
2019-06-20T09:23:54.029Z,153027.72
2019-06-20T09:26:22.540Z,153078.92
2019-06-20T09:28:52.371Z,153061.00
2019-06-20T09:31:21.172Z,153034.11
2019-06-20T09:33:49.609Z,153032.84
2019-06-20T09:36:18.030Z,152998.17
2019-06-20T09:38:46.453Z,152961.03
2019-06-20T09:41:14.871Z,152936.72
2019-06-20T09:43:43.299Z,152971.28
2019-06-20T09:46:11.724Z,153017.45
2019-06-20T09:48:40.133Z,153055.88
2019-06-20T09:51:08.556Z,153076.39
2019-06-20T09:53:37.004Z,153116.08
2019-06-20T09:56:05.485Z,153132.73
2019-06-20T09:58:33.930Z,153149.44
2019-06-20T10:01:02.420Z,153119.94
2019-06-20T10:03:30.810Z,153132.73
2019-06-20T10:05:59.290Z,153136.59
2019-06-20T10:08:27.685Z,153153.25
2019-06-20T10:10:56.335Z,153122.53
2019-06-20T10:13:24.837Z,153168.63
2019-06-20T10:15:53.546Z,153209.70
2019-06-20T10:18:22.179Z,153290.44
2019-06-20T10:20:51.178Z,153260.94
2019-06-20T10:23:19.963Z,153299.44
2019-06-20T10:25:49.276Z,153250.69
2019-06-20T10:28:19.035Z,153237.88
2019-06-20T10:30:48.655Z,153142.98
2019-06-20T10:33:17.391Z,153103.30
2019-06-20T10:35:46.937Z,153021.31
2019-06-20T10:38:15.679Z,153043.09
2019-06-20T10:40:46.064Z,153085.38
2019-06-20T10:43:14.290Z,153096.89
2019-06-20T10:45:44.695Z,153119.94
2019-06-20T10:48:13.435Z,153141.72
2019-06-20T10:50:42.606Z,153163.50
2019-06-20T10:53:12.110Z,153248.14
2019-06-20T10:55:41.969Z,153225.08
2019-06-20T10:58:11.184Z,153226.34
2019-06-20T11:00:39.818Z,153162.22
2019-06-20T11:03:09.935Z,153139.19
2019-06-20T11:05:39.295Z,153134.05
2019-06-20T11:08:08.569Z,153112.28
2019-06-20T11:10:38.659Z,153145.58
2019-06-20T11:13:07.441Z,153159.64
2019-06-20T11:15:35.958Z,153219.95
2019-06-20T11:18:04.445Z,153173.75
2019-06-20T11:20:33.468Z,153117.41
2019-06-20T11:23:01.888Z,153168.63
2019-06-20T11:25:30.456Z,153184.02
2019-06-20T11:27:58.898Z,153126.34
2019-06-20T11:30:44.555Z,153225.08
2019-06-20T11:33:00.358Z,153287.84
2019-06-20T11:35:28.768Z,153296.84
2019-06-20T11:37:57.194Z,153294.30
2019-06-20T11:40:25.767Z,153262.25
2019-06-20T11:42:54.190Z,153295.56
2019-06-20T11:45:22.952Z,153294.30
2019-06-20T11:47:51.401Z,153310.97
2019-06-20T11:50:21.039Z,153304.56
2019-06-20T11:52:49.611Z,153277.64
2019-06-20T11:55:19.681Z,153278.91
2019-06-20T11:57:48.109Z,153241.75
2019-06-20T12:00:18.725Z,153301.97
2019-06-20T12:02:48.280Z,153295.56
2019-06-20T12:05:17.420Z,153268.66
2019-06-20T12:07:47.658Z,153327.62
2019-06-20T12:10:16.932Z,153289.17
2019-06-20T12:12:46.801Z,153310.97
2019-06-20T12:15:16.946Z,153271.19
2019-06-20T12:17:47.037Z,153267.39
2019-06-20T12:20:16.186Z,153217.37
2019-06-20T12:22:45.033Z,153148.13
2019-06-20T12:25:14.634Z,153169.89
2019-06-20T12:27:43.321Z,153167.36
2019-06-20T12:30:14.499Z,153186.59
2019-06-20T12:32:42.955Z,153200.72
2019-06-20T12:35:12.015Z,153222.50
2019-06-20T12:37:40.643Z,153255.81
2019-06-20T12:40:10.500Z,153213.56
2019-06-20T12:42:40.925Z,153227.63
2019-06-20T12:45:10.573Z,153285.31
2019-06-20T12:47:40.212Z,153281.45
2019-06-20T12:50:09.739Z,153276.33
2019-06-20T12:52:39.413Z,153298.11
2019-06-20T12:55:08.928Z,153330.16
2019-06-20T12:57:38.606Z,153351.95
2019-06-20T13:00:09.614Z,153350.69
2019-06-20T13:02:38.686Z,153357.08
2019-06-20T13:05:09.588Z,153303.23
2019-06-20T13:07:39.217Z,153252.00
2019-06-20T13:10:10.314Z,153262.25
2019-06-20T13:12:40.676Z,153307.09
2019-06-20T13:15:09.526Z,153351.95
2019-06-20T13:17:39.312Z,153358.39
2019-06-20T13:20:10.921Z,153377.66
2019-06-20T13:22:40.875Z,153291.72
2019-06-20T13:25:10.198Z,153364.80
2019-06-20T13:27:39.761Z,153391.78
2019-06-20T13:30:09.985Z,153349.41
2019-06-20T13:32:41.183Z,153317.36
2019-06-20T13:35:09.460Z,153252.00
2019-06-20T13:37:38.458Z,153245.59
2019-06-20T13:40:10.883Z,153236.61
2019-06-20T13:42:41.759Z,153284.03
2019-06-20T13:45:24.508Z,153339.16
2019-06-20T13:47:53.062Z,153354.53
2019-06-20T13:50:23.447Z,153327.62
2019-06-20T13:52:52.418Z,153381.50
2019-06-20T13:55:20.918Z,153360.94
2019-06-20T13:57:49.692Z,153380.23
2019-06-20T14:00:21.262Z,153377.66
2019-06-20T14:02:51.572Z,153363.53
2019-06-20T14:05:20.139Z,153359.67
2019-06-20T14:07:51.815Z,153348.14
2019-06-20T14:10:19.944Z,153369.94
2019-06-20T14:12:48.912Z,153353.27
2019-06-20T14:15:18.507Z,153286.58
2019-06-20T14:17:47.490Z,153284.03
2019-06-20T14:20:16.461Z,153268.66
2019-06-20T14:22:45.232Z,153314.77
2019-06-20T14:25:14.307Z,153312.23
2019-06-20T14:27:43.969Z,153336.61
2019-06-20T14:30:14.458Z,153332.75
2019-06-20T14:32:43.253Z,153350.69
2019-06-20T14:35:12.794Z,153354.53
2019-06-20T14:37:43.479Z,153273.78
2019-06-20T14:40:12.518Z,153240.47
2019-06-20T14:42:41.014Z,153252.00
2019-06-20T14:45:11.083Z,153232.75
2019-06-20T14:47:39.505Z,153258.39
2019-06-20T14:50:11.651Z,153250.69
2019-06-20T14:52:40.129Z,153258.39
2019-06-20T14:55:10.497Z,153284.03
2019-06-20T14:57:38.945Z,153273.78
2019-06-20T15:00:09.841Z,153273.78
2019-06-20T15:02:39.142Z,153292.98
2019-06-20T15:05:15.783Z,153312.23
2019-06-20T15:07:45.706Z,153326.34
2019-06-20T15:10:15.811Z,153343.00
2019-06-20T15:12:45.753Z,153358.39
2019-06-20T15:15:15.040Z,153371.20
2019-06-20T15:17:46.483Z,153331.48
2019-06-20T15:20:14.835Z,153337.88
2019-06-20T15:22:43.345Z,153340.42
2019-06-20T15:25:12.820Z,153323.75
2019-06-20T15:27:41.367Z,153296.84
2019-06-20T15:30:10.196Z,153308.37
2019-06-20T15:32:53.081Z,153307.09
2019-06-20T15:35:10.124Z,153330.16
2019-06-20T15:37:38.561Z,153334.02
2019-06-20T15:40:08.039Z,153335.28
2019-06-20T15:42:36.549Z,153322.48
2019-06-20T15:45:09.433Z,153336.61
2019-06-20T15:47:38.319Z,153332.75
2019-06-20T15:50:08.655Z,153312.23
2019-06-20T15:52:37.096Z,153291.72
2019-06-20T15:55:06.682Z,153281.45
2019-06-20T15:57:35.283Z,153286.58
2019-06-20T16:00:09.509Z,153295.56
2019-06-20T16:02:37.919Z,153318.63
2019-06-20T16:05:07.702Z,153266.06
2019-06-20T16:07:36.184Z,153258.39
2019-06-20T16:10:07.023Z,153276.33
2019-06-20T16:12:35.504Z,153284.03
2019-06-20T16:15:07.020Z,153303.23
2019-06-20T16:17:35.481Z,153312.23
2019-06-20T16:20:05.048Z,153294.30
2019-06-20T16:22:33.495Z,153295.56
2019-06-20T16:25:01.924Z,153321.22
2019-06-20T16:27:30.339Z,153322.48
2019-06-20T16:29:58.886Z,153321.22
2019-06-20T16:32:27.357Z,153295.56
2019-06-20T16:34:55.795Z,153276.33
2019-06-20T16:37:24.245Z,153307.09
2019-06-20T16:39:52.672Z,153330.16
2019-06-20T16:42:21.088Z,153317.36
2019-06-20T16:44:49.526Z,153296.84
2019-06-20T16:47:17.936Z,153301.97
2019-06-20T16:49:46.369Z,153286.58
2019-06-20T16:52:14.809Z,153289.17
2019-06-20T16:54:43.236Z,153299.44
2019-06-20T16:57:11.658Z,153276.33
2019-06-20T16:59:40.102Z,153282.72
2019-06-20T17:02:08.516Z,153237.88
2019-06-20T17:04:36.947Z,153240.47
2019-06-20T17:07:05.449Z,153245.59
2019-06-20T17:09:33.856Z,153239.16
2019-06-20T17:12:02.305Z,153223.77
2019-06-20T17:14:30.717Z,153230.22
2019-06-20T17:16:59.135Z,153212.23
2019-06-20T17:19:27.599Z,153209.70
2019-06-20T17:21:56.001Z,153226.34
2019-06-20T17:24:24.436Z,153189.14
2019-06-20T17:26:52.858Z,153177.61
2019-06-20T17:29:21.290Z,153189.14
2019-06-20T17:31:49.739Z,153182.75
2019-06-20T17:34:18.153Z,153176.34
2019-06-20T17:36:46.589Z,153166.09
2019-06-20T17:39:15.103Z,153159.64
2019-06-20T17:41:54.778Z,153137.86
2019-06-20T17:44:13.677Z,153140.45
2019-06-20T17:46:42.179Z,153118.67
2019-06-20T17:49:10.877Z,153112.28
2019-06-20T17:51:39.450Z,153099.44
2019-06-20T17:54:07.867Z,153081.52
2019-06-20T17:56:36.448Z,153078.92
2019-06-20T17:59:04.919Z,153070.00
2019-06-20T18:01:35.982Z,153058.47
2019-06-20T18:04:13.311Z,153048.22
2019-06-20T18:06:33.807Z,153053.34
2019-06-20T18:09:02.295Z,153037.97
2019-06-20T18:11:30.736Z,153025.12
2019-06-20T18:13:59.224Z,153027.72
2019-06-20T18:16:27.697Z,153013.56
2019-06-20T18:18:56.198Z,153000.77
2019-06-20T18:21:24.683Z,152999.50
2019-06-20T18:23:53.123Z,152981.53
2019-06-20T18:26:21.579Z,152967.47
2019-06-20T18:28:50.354Z,152955.91
2019-06-20T18:31:18.822Z,152966.16
2019-06-20T18:33:47.235Z,152938.00
2019-06-20T18:36:15.685Z,152922.63
2019-06-20T18:38:44.121Z,152914.97
2019-06-20T18:41:12.551Z,152899.59
2019-06-20T18:43:40.984Z,152902.13
2019-06-20T18:46:09.548Z,152882.94
2019-06-20T18:48:37.968Z,152879.09
2019-06-20T18:51:06.499Z,152856.06
2019-06-20T18:53:34.918Z,152864.98
2019-06-20T18:56:03.354Z,152864.98
2019-06-20T18:58:31.804Z,152838.09
2019-06-20T19:01:00.295Z,152829.17
2019-06-20T19:03:28.741Z,152806.05
2019-06-20T19:05:57.172Z,152792.00
2019-06-20T19:08:25.593Z,152794.53
2019-06-20T19:10:54.033Z,152776.63
2019-06-20T19:13:22.531Z,152760.00
2019-06-20T19:15:51.012Z,152754.88
2019-06-20T19:18:22.913Z,152740.77
2019-06-20T19:20:49.573Z,152729.25
2019-06-20T19:23:17.998Z,152717.75
2019-06-20T19:25:46.427Z,152684.47
2019-06-20T19:28:14.848Z,152674.23
2019-06-20T19:30:48.878Z,152615.33
2019-06-20T19:33:17.513Z,152511.66
2019-06-20T19:35:46.023Z,152385.03
2019-06-20T19:38:14.447Z,152226.48
2019-06-20T19:40:48.156Z,152165.09
2019-06-20T19:43:16.758Z,152093.52
2019-06-20T19:45:45.819Z,152050.08
2019-06-20T19:48:14.734Z,152073.06
2019-06-20T19:50:43.939Z,152087.13
2019-06-20T19:53:13.199Z,152083.28
2019-06-20T19:55:42.269Z,152113.97
2019-06-20T19:58:10.852Z,152093.52
2019-06-20T20:00:39.321Z,152112.69
2019-06-20T20:03:08.202Z,151964.44
2019-06-20T20:05:36.830Z,151928.66
2019-06-20T20:08:05.819Z,151876.34
2019-06-20T20:10:45.665Z,151892.94
2019-06-20T20:13:15.497Z,151891.63
2019-06-20T20:15:44.694Z,151880.14
2019-06-20T20:18:14.161Z,151812.50
2019-06-20T20:20:47.290Z,151784.38
2019-06-20T20:23:14.348Z,151757.52
2019-06-20T20:25:42.870Z,151763.89
2019-06-20T20:28:11.375Z,151751.14
2019-06-20T20:30:39.873Z,151752.41
2019-06-20T20:33:08.384Z,151756.25
2019-06-20T20:35:36.808Z,151761.36
2019-06-20T20:38:05.388Z,151761.36
2019-06-20T20:40:33.828Z,151746.03
2019-06-20T20:43:02.294Z,151731.97
2019-06-20T20:45:30.735Z,151743.50
2019-06-20T20:47:59.158Z,151709.02
2019-06-20T20:50:27.583Z,151686.06
2019-06-20T20:52:56.060Z,151714.13
2019-06-20T20:55:24.527Z,151729.44
2019-06-20T20:57:52.952Z,151714.13
2019-06-20T21:00:24.440Z,151707.75
2019-06-20T21:02:53.914Z,151695.00
2019-06-20T21:05:22.410Z,151696.27
2019-06-20T21:07:50.925Z,151697.53
2019-06-20T21:10:20.002Z,151686.06
2019-06-20T21:12:48.478Z,151654.16
2019-06-20T21:15:17.543Z,151669.47
2019-06-20T21:17:45.951Z,151659.25
2019-06-20T21:20:15.048Z,151643.94
2019-06-20T21:22:43.485Z,151633.72
2019-06-20T21:25:13.985Z,151645.20
2019-06-20T21:27:42.427Z,151632.45
2019-06-20T21:30:11.988Z,151615.88
2019-06-20T21:32:40.512Z,151623.50
2019-06-20T21:35:11.448Z,151626.09
2019-06-20T21:37:39.889Z,151631.19
2019-06-20T21:40:09.471Z,151626.09
2019-06-20T21:42:37.896Z,151633.72
2019-06-20T21:45:08.682Z,151633.72
2019-06-20T21:47:37.105Z,151612.03
2019-06-20T21:50:07.325Z,151633.72
2019-06-20T21:52:35.760Z,151643.94
2019-06-20T21:55:06.223Z,151636.30
2019-06-20T21:57:34.657Z,151619.67
2019-06-20T22:00:04.911Z,151617.14
2019-06-20T22:02:33.420Z,151615.88
2019-06-20T22:05:01.867Z,151624.78
2019-06-20T22:07:30.316Z,151633.72
2019-06-20T22:09:58.830Z,151633.72
2019-06-20T22:12:27.349Z,151633.72
2019-06-20T22:14:55.806Z,151613.30
2019-06-20T22:17:24.229Z,151608.19
2019-06-20T22:19:52.681Z,151623.50
2019-06-20T22:22:21.112Z,151601.81
2019-06-20T22:24:49.566Z,151605.66
2019-06-20T22:27:18.020Z,151605.66
2019-06-20T22:29:46.441Z,151575.03
2019-06-20T22:32:14.909Z,151569.92
2019-06-20T22:34:43.352Z,151569.92
2019-06-20T22:37:11.830Z,151571.19
2019-06-20T22:39:40.330Z,151558.44
2019-06-20T22:42:08.748Z,151569.92
2019-06-20T22:44:37.199Z,151531.61
2019-06-20T22:47:05.719Z,151532.87
2019-06-20T22:49:34.147Z,151538.02
2019-06-20T22:52:02.679Z,151544.39
2019-06-20T22:54:31.147Z,151506.08
2019-06-20T22:57:00.474Z,151503.55
2019-06-20T22:59:28.897Z,151511.19
2019-06-20T23:01:57.440Z,151504.81
2019-06-20T23:04:25.867Z,151502.23
2019-06-20T23:06:56.625Z,151506.08
2019-06-20T23:09:27.286Z,151498.44
2019-06-20T23:11:54.684Z,151485.66
2019-06-20T23:14:23.130Z,151488.23
2019-06-20T23:16:51.571Z,151467.81
2019-06-20T23:19:20.045Z,151465.25
2019-06-20T23:21:48.488Z,151456.34
2019-06-20T23:24:16.880Z,151449.98
2019-06-20T23:26:45.326Z,151461.45
2019-06-20T23:29:22.701Z,151447.41
2019-06-20T23:31:52.974Z,151451.25
2019-06-20T23:34:21.550Z,151455.08
2019-06-20T23:36:50.091Z,151443.56
2019-06-20T23:39:18.558Z,151419.36
2019-06-20T23:41:47.071Z,151429.56
2019-06-20T23:44:15.519Z,151437.19
2019-06-20T23:46:44.014Z,151419.36
2019-06-20T23:49:12.457Z,151420.63
2019-06-20T23:51:48.294Z,151411.69
2019-06-20T23:54:16.797Z,151424.47
2019-06-20T23:56:45.245Z,151424.47
2019-06-20T23:59:13.661Z,151421.89
